sensor_id;sensor_type;location;lat;lon;timestamp;temperature;humidity
28374;DHT22;15616;40.148;-102.718;2023-06-14T00:01:02;25.60;42.50
28374;DHT22;15616;40.148;-102.718;2023-06-14T00:03:28;25.60;42.50
28374;DHT22;15616;40.148;-102.718;2023-06-14T00:05:54;25.60;42.50
28374;DHT22;15616;40.148;-102.718;2023-06-14T00:08:20;25.60;42.50
28374;DHT22;15616;40.148;-102.718;2023-06-14T00:10:48;25.60;42.50
28374;DHT22;15616;40.148;-102.718;2023-06-14T00:13:14;25.60;42.50
28374;DHT22;15616;40.148;-102.718;2023-06-14T00:15:40;25.60;42.60
28374;DHT22;15616;40.148;-102.718;2023-06-14T00:18:06;25.60;42.50
28374;DHT22;15616;40.148;-102.718;2023-06-14T00:20:32;25.60;42.50
28374;DHT22;15616;40.148;-102.718;2023-06-14T00:22:59;25.60;42.50
28374;DHT22;15616;40.148;-102.718;2023-06-14T00:25:25;25.60;42.50
28374;DHT22;15616;40.148;-102.718;2023-06-14T00:27:51;25.60;42.50
28374;DHT22;15616;40.148;-102.718;2023-06-14T00:30:17;25.60;42.50
28374;DHT22;15616;40.148;-102.718;2023-06-14T00:32:43;25.60;42.50
28374;DHT22;15616;40.148;-102.718;2023-06-14T00:35:09;25.60;42.50
28374;DHT22;15616;40.148;-102.718;2023-06-14T00:37:35;25.60;42.50
28374;DHT22;15616;40.148;-102.718;2023-06-14T00:40:01;25.60;42.40
28374;DHT22;15616;40.148;-102.718;2023-06-14T00:42:27;25.50;42.40
28374;DHT22;15616;40.148;-102.718;2023-06-14T00:44:52;25.50;42.40
28374;DHT22;15616;40.148;-102.718;2023-06-14T00:47:18;25.50;42.50
28374;DHT22;15616;40.148;-102.718;2023-06-14T00:49:47;25.50;42.50
28374;DHT22;15616;40.148;-102.718;2023-06-14T00:52:14;25.50;42.50
28374;DHT22;15616;40.148;-102.718;2023-06-14T00:54:40;25.50;42.50
28374;DHT22;15616;40.148;-102.718;2023-06-14T00:57:06;25.50;42.50
28374;DHT22;15616;40.148;-102.718;2023-06-14T00:59:33;25.50;42.50
28374;DHT22;15616;40.148;-102.718;2023-06-14T01:01:58;25.50;42.50
28374;DHT22;15616;40.148;-102.718;2023-06-14T01:04:24;25.50;42.40
28374;DHT22;15616;40.148;-102.718;2023-06-14T01:06:54;25.50;42.50
28374;DHT22;15616;40.148;-102.718;2023-06-14T01:09:40;25.50;42.50
28374;DHT22;15616;40.148;-102.718;2023-06-14T01:14:35;25.50;42.50
28374;DHT22;15616;40.148;-102.718;2023-06-14T01:17:02;25.50;42.50
28374;DHT22;15616;40.148;-102.718;2023-06-14T01:19:27;25.40;43.00
28374;DHT22;15616;40.148;-102.718;2023-06-14T01:21:56;25.50;42.40
28374;DHT22;15616;40.148;-102.718;2023-06-14T01:24:22;25.40;42.40
28374;DHT22;15616;40.148;-102.718;2023-06-14T01:26:52;25.40;42.40
28374;DHT22;15616;40.148;-102.718;2023-06-14T01:29:23;25.40;42.40
28374;DHT22;15616;40.148;-102.718;2023-06-14T01:31:53;25.40;42.40
28374;DHT22;15616;40.148;-102.718;2023-06-14T01:34:19;25.40;42.50
28374;DHT22;15616;40.148;-102.718;2023-06-14T01:36:45;25.40;42.50
28374;DHT22;15616;40.148;-102.718;2023-06-14T01:39:14;25.40;42.40
28374;DHT22;15616;40.148;-102.718;2023-06-14T01:41:43;25.40;42.40
28374;DHT22;15616;40.148;-102.718;2023-06-14T01:44:10;25.40;42.40
28374;DHT22;15616;40.148;-102.718;2023-06-14T01:46:37;25.40;42.40
28374;DHT22;15616;40.148;-102.718;2023-06-14T01:49:03;25.40;42.40
28374;DHT22;15616;40.148;-102.718;2023-06-14T01:51:29;25.40;42.30
28374;DHT22;15616;40.148;-102.718;2023-06-14T01:53:54;25.40;42.40
28374;DHT22;15616;40.148;-102.718;2023-06-14T01:56:20;25.40;42.40
28374;DHT22;15616;40.148;-102.718;2023-06-14T01:58:47;25.40;42.40
28374;DHT22;15616;40.148;-102.718;2023-06-14T02:01:13;25.40;42.30
28374;DHT22;15616;40.148;-102.718;2023-06-14T02:03:41;25.40;42.30
28374;DHT22;15616;40.148;-102.718;2023-06-14T02:06:07;25.40;42.30
28374;DHT22;15616;40.148;-102.718;2023-06-14T02:08:33;25.40;42.30
28374;DHT22;15616;40.148;-102.718;2023-06-14T02:10:59;25.40;42.30
28374;DHT22;15616;40.148;-102.718;2023-06-14T02:13:24;25.40;42.30
28374;DHT22;15616;40.148;-102.718;2023-06-14T02:15:50;25.40;42.30
28374;DHT22;15616;40.148;-102.718;2023-06-14T02:18:20;25.40;42.30
28374;DHT22;15616;40.148;-102.718;2023-06-14T02:20:45;25.40;42.20
28374;DHT22;15616;40.148;-102.718;2023-06-14T02:23:11;25.30;42.10
28374;DHT22;15616;40.148;-102.718;2023-06-14T02:25:37;25.30;42.10
28374;DHT22;15616;40.148;-102.718;2023-06-14T02:28:02;25.30;42.10
28374;DHT22;15616;40.148;-102.718;2023-06-14T02:30:28;25.30;42.10
28374;DHT22;15616;40.148;-102.718;2023-06-14T02:32:54;25.30;42.10
28374;DHT22;15616;40.148;-102.718;2023-06-14T02:35:19;25.30;42.10
28374;DHT22;15616;40.148;-102.718;2023-06-14T02:37:47;25.30;42.10
28374;DHT22;15616;40.148;-102.718;2023-06-14T02:40:13;25.30;42.10
28374;DHT22;15616;40.148;-102.718;2023-06-14T02:42:39;25.30;42.20
28374;DHT22;15616;40.148;-102.718;2023-06-14T02:45:04;25.20;42.20
28374;DHT22;15616;40.148;-102.718;2023-06-14T02:47:30;25.30;42.20
28374;DHT22;15616;40.148;-102.718;2023-06-14T02:49:56;25.20;42.10
28374;DHT22;15616;40.148;-102.718;2023-06-14T02:52:22;25.20;42.20
28374;DHT22;15616;40.148;-102.718;2023-06-14T02:54:48;25.20;42.10
28374;DHT22;15616;40.148;-102.718;2023-06-14T02:57:13;25.20;42.10
28374;DHT22;15616;40.148;-102.718;2023-06-14T02:59:39;25.20;42.20
28374;DHT22;15616;40.148;-102.718;2023-06-14T03:02:05;25.20;42.20
28374;DHT22;15616;40.148;-102.718;2023-06-14T03:04:31;25.20;42.20
28374;DHT22;15616;40.148;-102.718;2023-06-14T03:07:02;25.20;42.10
28374;DHT22;15616;40.148;-102.718;2023-06-14T03:09:35;25.20;42.10
28374;DHT22;15616;40.148;-102.718;2023-06-14T03:12:01;25.20;42.10
28374;DHT22;15616;40.148;-102.718;2023-06-14T03:14:28;25.20;42.10
28374;DHT22;15616;40.148;-102.718;2023-06-14T03:16:54;25.20;42.10
28374;DHT22;15616;40.148;-102.718;2023-06-14T03:19:22;25.20;42.10
28374;DHT22;15616;40.148;-102.718;2023-06-14T03:21:48;25.20;42.10
28374;DHT22;15616;40.148;-102.718;2023-06-14T03:24:14;25.20;42.10
28374;DHT22;15616;40.148;-102.718;2023-06-14T03:26:41;25.20;42.10
28374;DHT22;15616;40.148;-102.718;2023-06-14T03:29:07;25.20;42.10
28374;DHT22;15616;40.148;-102.718;2023-06-14T03:31:34;25.20;42.10
28374;DHT22;15616;40.148;-102.718;2023-06-14T03:34:00;25.20;42.20
28374;DHT22;15616;40.148;-102.718;2023-06-14T03:36:26;25.20;42.90
28374;DHT22;15616;40.148;-102.718;2023-06-14T03:38:53;25.20;42.20
28374;DHT22;15616;40.148;-102.718;2023-06-14T03:41:20;25.20;42.20
28374;DHT22;15616;40.148;-102.718;2023-06-14T03:43:45;25.20;42.20
28374;DHT22;15616;40.148;-102.718;2023-06-14T03:46:11;25.10;42.20
28374;DHT22;15616;40.148;-102.718;2023-06-14T03:48:37;25.10;42.20
28374;DHT22;15616;40.148;-102.718;2023-06-14T03:51:04;25.10;42.20
28374;DHT22;15616;40.148;-102.718;2023-06-14T03:53:30;25.10;42.20
28374;DHT22;15616;40.148;-102.718;2023-06-14T03:55:56;25.10;42.20
28374;DHT22;15616;40.148;-102.718;2023-06-14T03:58:22;25.10;42.20
28374;DHT22;15616;40.148;-102.718;2023-06-14T04:00:48;25.10;42.20
28374;DHT22;15616;40.148;-102.718;2023-06-14T04:03:14;25.20;42.30
28374;DHT22;15616;40.148;-102.718;2023-06-14T04:05:41;25.20;42.30
28374;DHT22;15616;40.148;-102.718;2023-06-14T04:08:14;25.20;42.30
28374;DHT22;15616;40.148;-102.718;2023-06-14T04:10:41;25.10;42.20
28374;DHT22;15616;40.148;-102.718;2023-06-14T04:13:07;25.20;42.20
28374;DHT22;15616;40.148;-102.718;2023-06-14T04:15:32;25.10;42.20
28374;DHT22;15616;40.148;-102.718;2023-06-14T04:17:59;25.20;42.20
28374;DHT22;15616;40.148;-102.718;2023-06-14T04:20:24;25.20;42.20
28374;DHT22;15616;40.148;-102.718;2023-06-14T04:22:51;25.10;42.10
28374;DHT22;15616;40.148;-102.718;2023-06-14T04:25:16;25.20;42.10
28374;DHT22;15616;40.148;-102.718;2023-06-14T04:27:43;25.20;42.00
28374;DHT22;15616;40.148;-102.718;2023-06-14T04:30:09;25.30;41.90
28374;DHT22;15616;40.148;-102.718;2023-06-14T04:32:35;25.30;41.80
28374;DHT22;15616;40.148;-102.718;2023-06-14T04:35:07;25.30;41.70
28374;DHT22;15616;40.148;-102.718;2023-06-14T04:37:33;25.30;41.70
28374;DHT22;15616;40.148;-102.718;2023-06-14T04:39:59;25.30;41.70
28374;DHT22;15616;40.148;-102.718;2023-06-14T04:42:26;25.30;41.70
28374;DHT22;15616;40.148;-102.718;2023-06-14T04:44:56;25.40;41.70
28374;DHT22;15616;40.148;-102.718;2023-06-14T04:47:22;25.30;41.50
28374;DHT22;15616;40.148;-102.718;2023-06-14T04:49:50;25.40;41.70
28374;DHT22;15616;40.148;-102.718;2023-06-14T04:52:17;25.40;41.60
28374;DHT22;15616;40.148;-102.718;2023-06-14T04:54:46;25.40;41.80
28374;DHT22;15616;40.148;-102.718;2023-06-14T04:57:12;25.30;41.60
28374;DHT22;15616;40.148;-102.718;2023-06-14T04:59:43;25.30;41.60
28374;DHT22;15616;40.148;-102.718;2023-06-14T05:02:10;25.30;41.60
28374;DHT22;15616;40.148;-102.718;2023-06-14T05:04:35;25.30;41.60
28374;DHT22;15616;40.148;-102.718;2023-06-14T05:07:08;25.30;41.60
28374;DHT22;15616;40.148;-102.718;2023-06-14T05:09:37;25.30;41.70
28374;DHT22;15616;40.148;-102.718;2023-06-14T05:12:03;25.30;41.70
28374;DHT22;15616;40.148;-102.718;2023-06-14T05:14:29;25.30;41.70
28374;DHT22;15616;40.148;-102.718;2023-06-14T05:16:55;25.20;41.60
28374;DHT22;15616;40.148;-102.718;2023-06-14T05:19:21;25.20;41.80
28374;DHT22;15616;40.148;-102.718;2023-06-14T05:21:47;25.20;41.80
28374;DHT22;15616;40.148;-102.718;2023-06-14T05:24:14;25.20;41.80
28374;DHT22;15616;40.148;-102.718;2023-06-14T05:26:40;25.10;41.90
28374;DHT22;15616;40.148;-102.718;2023-06-14T05:29:06;25.10;42.00
28374;DHT22;15616;40.148;-102.718;2023-06-14T05:31:31;25.10;42.10
28374;DHT22;15616;40.148;-102.718;2023-06-14T05:33:58;25.10;42.20
28374;DHT22;15616;40.148;-102.718;2023-06-14T05:36:23;25.10;42.10
28374;DHT22;15616;40.148;-102.718;2023-06-14T05:38:50;25.10;42.20
28374;DHT22;15616;40.148;-102.718;2023-06-14T05:41:24;25.10;42.20
28374;DHT22;15616;40.148;-102.718;2023-06-14T05:43:50;25.10;42.30
28374;DHT22;15616;40.148;-102.718;2023-06-14T05:46:16;25.10;42.30
28374;DHT22;15616;40.148;-102.718;2023-06-14T05:48:53;25.10;42.20
28374;DHT22;15616;40.148;-102.718;2023-06-14T05:51:19;25.10;42.20
28374;DHT22;15616;40.148;-102.718;2023-06-14T05:53:48;25.10;42.10
28374;DHT22;15616;40.148;-102.718;2023-06-14T05:56:14;25.10;42.10
28374;DHT22;15616;40.148;-102.718;2023-06-14T05:58:40;25.10;42.10
28374;DHT22;15616;40.148;-102.718;2023-06-14T06:01:06;25.20;42.10
28374;DHT22;15616;40.148;-102.718;2023-06-14T06:03:32;25.20;42.00
28374;DHT22;15616;40.148;-102.718;2023-06-14T06:05:58;25.20;42.00
28374;DHT22;15616;40.148;-102.718;2023-06-14T06:08:24;25.20;42.00
28374;DHT22;15616;40.148;-102.718;2023-06-14T06:10:50;25.20;42.60
28374;DHT22;15616;40.148;-102.718;2023-06-14T06:13:16;25.20;42.00
28374;DHT22;15616;40.148;-102.718;2023-06-14T06:15:41;25.20;42.00
28374;DHT22;15616;40.148;-102.718;2023-06-14T06:18:07;25.10;42.00
28374;DHT22;15616;40.148;-102.718;2023-06-14T06:20:33;25.10;41.90
28374;DHT22;15616;40.148;-102.718;2023-06-14T06:22:59;25.20;41.90
28374;DHT22;15616;40.148;-102.718;2023-06-14T06:25:25;25.20;41.90
28374;DHT22;15616;40.148;-102.718;2023-06-14T06:27:51;25.20;41.90
28374;DHT22;15616;40.148;-102.718;2023-06-14T06:30:19;25.10;41.80
28374;DHT22;15616;40.148;-102.718;2023-06-14T06:32:45;25.10;41.90
28374;DHT22;15616;40.148;-102.718;2023-06-14T06:35:11;25.20;41.90
28374;DHT22;15616;40.148;-102.718;2023-06-14T06:37:38;25.20;41.90
28374;DHT22;15616;40.148;-102.718;2023-06-14T06:40:04;25.20;41.80
28374;DHT22;15616;40.148;-102.718;2023-06-14T06:42:34;25.20;41.80
28374;DHT22;15616;40.148;-102.718;2023-06-14T06:45:00;25.20;42.50
28374;DHT22;15616;40.148;-102.718;2023-06-14T06:47:26;25.20;41.80
28374;DHT22;15616;40.148;-102.718;2023-06-14T06:49:52;25.20;41.80
28374;DHT22;15616;40.148;-102.718;2023-06-14T06:52:18;25.30;41.80
28374;DHT22;15616;40.148;-102.718;2023-06-14T06:54:45;25.20;41.70
28374;DHT22;15616;40.148;-102.718;2023-06-14T06:57:11;25.30;41.70
28374;DHT22;15616;40.148;-102.718;2023-06-14T06:59:37;25.30;41.70
28374;DHT22;15616;40.148;-102.718;2023-06-14T07:02:03;25.30;41.70
28374;DHT22;15616;40.148;-102.718;2023-06-14T07:04:29;25.30;41.70
28374;DHT22;15616;40.148;-102.718;2023-06-14T07:06:55;25.30;41.70
28374;DHT22;15616;40.148;-102.718;2023-06-14T07:09:20;25.30;41.80
28374;DHT22;15616;40.148;-102.718;2023-06-14T07:11:46;25.30;41.80
28374;DHT22;15616;40.148;-102.718;2023-06-14T07:14:12;25.30;41.80
28374;DHT22;15616;40.148;-102.718;2023-06-14T07:16:38;25.30;41.80
28374;DHT22;15616;40.148;-102.718;2023-06-14T07:19:04;25.30;41.60
28374;DHT22;15616;40.148;-102.718;2023-06-14T07:21:30;25.30;41.70
28374;DHT22;15616;40.148;-102.718;2023-06-14T07:23:56;25.30;41.70
28374;DHT22;15616;40.148;-102.718;2023-06-14T07:26:22;25.30;41.70
28374;DHT22;15616;40.148;-102.718;2023-06-14T07:28:48;25.30;41.60
28374;DHT22;15616;40.148;-102.718;2023-06-14T07:31:14;25.30;41.60
28374;DHT22;15616;40.148;-102.718;2023-06-14T07:33:40;25.30;41.50
28374;DHT22;15616;40.148;-102.718;2023-06-14T07:36:06;25.30;41.50
28374;DHT22;15616;40.148;-102.718;2023-06-14T07:38:32;25.30;41.50
28374;DHT22;15616;40.148;-102.718;2023-06-14T07:40:58;25.30;41.50
28374;DHT22;15616;40.148;-102.718;2023-06-14T07:43:24;25.30;41.50
28374;DHT22;15616;40.148;-102.718;2023-06-14T07:45:49;25.30;41.50
28374;DHT22;15616;40.148;-102.718;2023-06-14T07:48:15;25.30;41.50
28374;DHT22;15616;40.148;-102.718;2023-06-14T07:50:41;25.40;41.60
28374;DHT22;15616;40.148;-102.718;2023-06-14T07:53:07;25.40;41.60
28374;DHT22;15616;40.148;-102.718;2023-06-14T07:55:32;25.40;41.60
28374;DHT22;15616;40.148;-102.718;2023-06-14T07:58:05;25.40;41.50
28374;DHT22;15616;40.148;-102.718;2023-06-14T08:00:31;25.30;41.40
28374;DHT22;15616;40.148;-102.718;2023-06-14T08:02:57;25.40;41.50
28374;DHT22;15616;40.148;-102.718;2023-06-14T08:05:27;25.40;41.50
28374;DHT22;15616;40.148;-102.718;2023-06-14T08:07:53;25.40;41.60
28374;DHT22;15616;40.148;-102.718;2023-06-14T08:10:18;25.40;41.50
28374;DHT22;15616;40.148;-102.718;2023-06-14T08:12:44;25.40;41.50
28374;DHT22;15616;40.148;-102.718;2023-06-14T08:15:10;25.40;41.50
28374;DHT22;15616;40.148;-102.718;2023-06-14T08:17:36;25.40;41.40
28374;DHT22;15616;40.148;-102.718;2023-06-14T08:20:02;25.40;41.30
28374;DHT22;15616;40.148;-102.718;2023-06-14T08:22:29;25.50;41.40
28374;DHT22;15616;40.148;-102.718;2023-06-14T08:24:58;25.40;41.40
28374;DHT22;15616;40.148;-102.718;2023-06-14T08:27:23;25.40;41.40
28374;DHT22;15616;40.148;-102.718;2023-06-14T08:29:49;25.40;41.40
28374;DHT22;15616;40.148;-102.718;2023-06-14T08:32:15;25.50;41.40
28374;DHT22;15616;40.148;-102.718;2023-06-14T08:34:41;25.50;41.40
28374;DHT22;15616;40.148;-102.718;2023-06-14T08:37:07;25.50;41.40
28374;DHT22;15616;40.148;-102.718;2023-06-14T08:39:33;25.50;41.30
28374;DHT22;15616;40.148;-102.718;2023-06-14T08:41:58;25.50;41.30
28374;DHT22;15616;40.148;-102.718;2023-06-14T08:44:26;25.50;41.30
28374;DHT22;15616;40.148;-102.718;2023-06-14T08:46:52;25.50;41.30
28374;DHT22;15616;40.148;-102.718;2023-06-14T08:49:18;25.60;41.30
28374;DHT22;15616;40.148;-102.718;2023-06-14T08:51:46;25.60;41.20
28374;DHT22;15616;40.148;-102.718;2023-06-14T08:54:17;25.60;41.20
28374;DHT22;15616;40.148;-102.718;2023-06-14T08:56:46;25.60;41.30
28374;DHT22;15616;40.148;-102.718;2023-06-14T08:59:13;25.60;41.20
28374;DHT22;15616;40.148;-102.718;2023-06-14T09:01:40;25.60;41.20
28374;DHT22;15616;40.148;-102.718;2023-06-14T09:04:06;25.60;41.10
28374;DHT22;15616;40.148;-102.718;2023-06-14T09:06:32;25.60;41.10
28374;DHT22;15616;40.148;-102.718;2023-06-14T09:08:58;25.60;41.00
28374;DHT22;15616;40.148;-102.718;2023-06-14T09:11:24;25.60;41.00
28374;DHT22;15616;40.148;-102.718;2023-06-14T09:13:51;25.70;41.00
28374;DHT22;15616;40.148;-102.718;2023-06-14T09:16:17;25.60;41.10
28374;DHT22;15616;40.148;-102.718;2023-06-14T09:18:43;25.60;41.10
28374;DHT22;15616;40.148;-102.718;2023-06-14T09:21:10;25.60;41.00
28374;DHT22;15616;40.148;-102.718;2023-06-14T09:23:37;25.60;41.10
28374;DHT22;15616;40.148;-102.718;2023-06-14T09:26:13;25.60;41.10
28374;DHT22;15616;40.148;-102.718;2023-06-14T09:28:42;25.70;41.10
28374;DHT22;15616;40.148;-102.718;2023-06-14T09:31:09;25.70;41.80
28374;DHT22;15616;40.148;-102.718;2023-06-14T09:33:35;25.70;41.10
28374;DHT22;15616;40.148;-102.718;2023-06-14T09:36:01;25.70;41.10
28374;DHT22;15616;40.148;-102.718;2023-06-14T09:38:27;25.70;41.10
28374;DHT22;15616;40.148;-102.718;2023-06-14T09:40:54;25.70;41.00
28374;DHT22;15616;40.148;-102.718;2023-06-14T09:43:21;25.70;41.00
28374;DHT22;15616;40.148;-102.718;2023-06-14T09:45:47;25.70;41.00
28374;DHT22;15616;40.148;-102.718;2023-06-14T09:48:14;25.80;41.10
28374;DHT22;15616;40.148;-102.718;2023-06-14T09:50:46;25.70;41.00
28374;DHT22;15616;40.148;-102.718;2023-06-14T09:53:13;25.80;41.10
28374;DHT22;15616;40.148;-102.718;2023-06-14T09:55:40;25.80;41.10
28374;DHT22;15616;40.148;-102.718;2023-06-14T09:58:06;25.80;41.10
28374;DHT22;15616;40.148;-102.718;2023-06-14T10:00:32;25.90;40.90
28374;DHT22;15616;40.148;-102.718;2023-06-14T10:03:01;25.90;40.90
28374;DHT22;15616;40.148;-102.718;2023-06-14T10:05:29;25.90;40.90
28374;DHT22;15616;40.148;-102.718;2023-06-14T10:10:20;25.90;40.90
28374;DHT22;15616;40.148;-102.718;2023-06-14T10:12:47;25.90;40.90
28374;DHT22;15616;40.148;-102.718;2023-06-14T10:15:58;25.90;40.90
28374;DHT22;15616;40.148;-102.718;2023-06-14T10:18:14;25.80;40.90
28374;DHT22;15616;40.148;-102.718;2023-06-14T10:21:02;25.90;41.00
28374;DHT22;15616;40.148;-102.718;2023-06-14T10:23:31;25.90;40.90
28374;DHT22;15616;40.148;-102.718;2023-06-14T10:25:58;25.80;40.90
28374;DHT22;15616;40.148;-102.718;2023-06-14T10:28:25;25.90;40.90
28374;DHT22;15616;40.148;-102.718;2023-06-14T10:31:01;25.90;41.00
28374;DHT22;15616;40.148;-102.718;2023-06-14T10:33:31;25.90;40.90
28374;DHT22;15616;40.148;-102.718;2023-06-14T10:36:09;25.90;40.90
28374;DHT22;15616;40.148;-102.718;2023-06-14T10:38:38;25.90;40.80
28374;DHT22;15616;40.148;-102.718;2023-06-14T10:41:04;26.00;40.80
28374;DHT22;15616;40.148;-102.718;2023-06-14T10:43:31;26.10;40.80
28374;DHT22;15616;40.148;-102.718;2023-06-14T10:46:16;26.10;40.60
28374;DHT22;15616;40.148;-102.718;2023-06-14T10:48:43;26.20;40.50
28374;DHT22;15616;40.148;-102.718;2023-06-14T10:51:21;26.20;40.50
28374;DHT22;15616;40.148;-102.718;2023-06-14T10:53:47;26.20;40.40
28374;DHT22;15616;40.148;-102.718;2023-06-14T10:56:23;26.20;40.50
28374;DHT22;15616;40.148;-102.718;2023-06-14T10:58:50;26.20;40.40
28374;DHT22;15616;40.148;-102.718;2023-06-14T11:01:17;26.20;40.40
28374;DHT22;15616;40.148;-102.718;2023-06-14T11:03:48;26.20;40.50
28374;DHT22;15616;40.148;-102.718;2023-06-14T11:06:17;26.20;40.50
28374;DHT22;15616;40.148;-102.718;2023-06-14T11:08:56;26.20;40.50
28374;DHT22;15616;40.148;-102.718;2023-06-14T11:11:29;26.10;40.50
28374;DHT22;15616;40.148;-102.718;2023-06-14T11:13:57;26.10;40.50
28374;DHT22;15616;40.148;-102.718;2023-06-14T11:16:22;26.10;40.50
28374;DHT22;15616;40.148;-102.718;2023-06-14T11:18:51;26.10;40.40
28374;DHT22;15616;40.148;-102.718;2023-06-14T11:21:17;26.10;40.30
28374;DHT22;15616;40.148;-102.718;2023-06-14T11:23:50;26.10;40.20
28374;DHT22;15616;40.148;-102.718;2023-06-14T11:26:23;26.10;40.30
28374;DHT22;15616;40.148;-102.718;2023-06-14T11:28:49;26.10;40.30
28374;DHT22;15616;40.148;-102.718;2023-06-14T11:31:20;26.20;40.20
28374;DHT22;15616;40.148;-102.718;2023-06-14T11:33:48;26.20;40.10
28374;DHT22;15616;40.148;-102.718;2023-06-14T11:36:15;26.20;40.00
28374;DHT22;15616;40.148;-102.718;2023-06-14T11:38:40;26.20;40.00
28374;DHT22;15616;40.148;-102.718;2023-06-14T11:41:06;26.20;39.90
28374;DHT22;15616;40.148;-102.718;2023-06-14T11:43:32;26.30;39.90
28374;DHT22;15616;40.148;-102.718;2023-06-14T11:46:00;26.30;39.80
28374;DHT22;15616;40.148;-102.718;2023-06-14T11:48:35;26.30;39.70
28374;DHT22;15616;40.148;-102.718;2023-06-14T11:51:01;26.30;39.80
28374;DHT22;15616;40.148;-102.718;2023-06-14T11:53:27;26.30;39.70
28374;DHT22;15616;40.148;-102.718;2023-06-14T11:55:53;26.30;39.70
28374;DHT22;15616;40.148;-102.718;2023-06-14T11:58:19;26.30;39.70
28374;DHT22;15616;40.148;-102.718;2023-06-14T12:00:44;26.30;39.70
28374;DHT22;15616;40.148;-102.718;2023-06-14T12:03:14;26.30;39.70
28374;DHT22;15616;40.148;-102.718;2023-06-14T12:05:39;26.30;39.70
28374;DHT22;15616;40.148;-102.718;2023-06-14T12:08:05;26.30;39.70
28374;DHT22;15616;40.148;-102.718;2023-06-14T12:10:39;26.30;39.70
28374;DHT22;15616;40.148;-102.718;2023-06-14T12:13:06;26.30;39.70
28374;DHT22;15616;40.148;-102.718;2023-06-14T12:15:32;26.20;39.60
28374;DHT22;15616;40.148;-102.718;2023-06-14T12:17:57;26.30;39.70
28374;DHT22;15616;40.148;-102.718;2023-06-14T12:20:28;26.20;39.60
28374;DHT22;15616;40.148;-102.718;2023-06-14T12:22:55;26.20;39.50
28374;DHT22;15616;40.148;-102.718;2023-06-14T12:25:26;26.30;39.50
28374;DHT22;15616;40.148;-102.718;2023-06-14T12:27:53;26.30;39.60
28374;DHT22;15616;40.148;-102.718;2023-06-14T12:30:19;26.30;39.50
28374;DHT22;15616;40.148;-102.718;2023-06-14T12:32:45;26.30;39.50
28374;DHT22;15616;40.148;-102.718;2023-06-14T12:38:01;26.30;39.50
28374;DHT22;15616;40.148;-102.718;2023-06-14T12:40:29;26.30;39.50
28374;DHT22;15616;40.148;-102.718;2023-06-14T12:42:54;26.30;39.50
28374;DHT22;15616;40.148;-102.718;2023-06-14T12:45:20;26.30;39.50
28374;DHT22;15616;40.148;-102.718;2023-06-14T12:47:46;26.30;39.40
28374;DHT22;15616;40.148;-102.718;2023-06-14T12:50:12;26.30;39.40
28374;DHT22;15616;40.148;-102.718;2023-06-14T12:52:37;26.30;39.30
28374;DHT22;15616;40.148;-102.718;2023-06-14T12:55:06;26.30;39.40
28374;DHT22;15616;40.148;-102.718;2023-06-14T12:57:32;26.30;39.30
28374;DHT22;15616;40.148;-102.718;2023-06-14T12:59:59;26.30;39.20
28374;DHT22;15616;40.148;-102.718;2023-06-14T13:02:25;26.30;39.20
28374;DHT22;15616;40.148;-102.718;2023-06-14T13:04:51;26.30;39.30
28374;DHT22;15616;40.148;-102.718;2023-06-14T13:07:16;26.30;39.30
28374;DHT22;15616;40.148;-102.718;2023-06-14T13:09:42;26.40;39.30
28374;DHT22;15616;40.148;-102.718;2023-06-14T13:12:10;26.40;39.30
28374;DHT22;15616;40.148;-102.718;2023-06-14T13:14:36;26.40;39.30
28374;DHT22;15616;40.148;-102.718;2023-06-14T13:17:02;26.40;39.30
28374;DHT22;15616;40.148;-102.718;2023-06-14T13:19:28;26.40;39.30
28374;DHT22;15616;40.148;-102.718;2023-06-14T13:21:54;26.40;39.30
28374;DHT22;15616;40.148;-102.718;2023-06-14T13:24:20;26.40;39.30
28374;DHT22;15616;40.148;-102.718;2023-06-14T13:26:45;26.40;39.30
28374;DHT22;15616;40.148;-102.718;2023-06-14T13:29:11;26.40;39.20
28374;DHT22;15616;40.148;-102.718;2023-06-14T13:31:37;26.40;39.30
28374;DHT22;15616;40.148;-102.718;2023-06-14T13:34:03;26.40;39.30
28374;DHT22;15616;40.148;-102.718;2023-06-14T13:36:29;26.40;39.20
28374;DHT22;15616;40.148;-102.718;2023-06-14T13:38:55;26.40;39.20
28374;DHT22;15616;40.148;-102.718;2023-06-14T13:41:21;26.40;39.20
28374;DHT22;15616;40.148;-102.718;2023-06-14T13:43:47;26.40;39.10
28374;DHT22;15616;40.148;-102.718;2023-06-14T13:46:13;26.40;39.10
28374;DHT22;15616;40.148;-102.718;2023-06-14T13:48:38;26.40;39.20
28374;DHT22;15616;40.148;-102.718;2023-06-14T13:51:04;26.40;39.10
28374;DHT22;15616;40.148;-102.718;2023-06-14T13:53:30;26.40;39.20
28374;DHT22;15616;40.148;-102.718;2023-06-14T13:55:56;26.40;39.20
28374;DHT22;15616;40.148;-102.718;2023-06-14T13:58:22;26.40;39.20
28374;DHT22;15616;40.148;-102.718;2023-06-14T14:00:49;26.40;39.20
28374;DHT22;15616;40.148;-102.718;2023-06-14T14:03:15;26.40;39.20
28374;DHT22;15616;40.148;-102.718;2023-06-14T14:05:41;26.40;39.20
28374;DHT22;15616;40.148;-102.718;2023-06-14T14:08:07;26.40;39.10
28374;DHT22;15616;40.148;-102.718;2023-06-14T14:10:33;26.40;39.10
28374;DHT22;15616;40.148;-102.718;2023-06-14T14:12:58;26.50;39.10
28374;DHT22;15616;40.148;-102.718;2023-06-14T14:15:25;26.50;39.10
28374;DHT22;15616;40.148;-102.718;2023-06-14T14:17:50;26.50;39.10
28374;DHT22;15616;40.148;-102.718;2023-06-14T14:20:17;26.50;39.10
28374;DHT22;15616;40.148;-102.718;2023-06-14T14:22:43;26.50;39.10
28374;DHT22;15616;40.148;-102.718;2023-06-14T14:25:09;26.50;39.20
28374;DHT22;15616;40.148;-102.718;2023-06-14T14:27:35;26.50;39.30
28374;DHT22;15616;40.148;-102.718;2023-06-14T14:30:01;26.50;39.30
28374;DHT22;15616;40.148;-102.718;2023-06-14T14:32:26;26.50;39.30
28374;DHT22;15616;40.148;-102.718;2023-06-14T14:34:52;26.50;39.30
28374;DHT22;15616;40.148;-102.718;2023-06-14T14:37:18;26.50;39.30
28374;DHT22;15616;40.148;-102.718;2023-06-14T14:39:44;26.60;39.40
28374;DHT22;15616;40.148;-102.718;2023-06-14T14:42:09;26.50;39.30
28374;DHT22;15616;40.148;-102.718;2023-06-14T14:44:37;26.60;39.50
28374;DHT22;15616;40.148;-102.718;2023-06-14T14:47:03;26.50;39.30
28374;DHT22;15616;40.148;-102.718;2023-06-14T14:49:29;26.60;39.40
28374;DHT22;15616;40.148;-102.718;2023-06-14T14:51:55;26.60;39.40
28374;DHT22;15616;40.148;-102.718;2023-06-14T14:54:21;26.60;39.40